createdAt,value
2019-02-12T00:02:13.707Z,11.00
2019-02-12T00:04:40.957Z,11.73
2019-02-12T00:07:08.399Z,11.90
2019-02-12T00:09:36.017Z,9.53
2019-02-12T00:12:03.356Z,9.43
2019-02-12T00:14:30.605Z,8.60
2019-02-12T00:16:57.829Z,8.63
2019-02-12T00:19:25.147Z,9.60
2019-02-12T00:21:52.357Z,8.93
2019-02-12T00:24:19.594Z,7.93
2019-02-12T00:26:46.817Z,8.30
2019-02-12T00:29:13.944Z,9.00
2019-02-12T00:31:41.240Z,8.60
2019-02-12T00:34:08.459Z,8.37
2019-02-12T00:36:35.725Z,9.03
2019-02-12T00:39:04.891Z,8.47
2019-02-12T00:41:32.138Z,7.67
2019-02-12T00:43:59.365Z,8.60
2019-02-12T00:46:26.703Z,8.17
2019-02-12T00:48:53.930Z,8.17
2019-02-12T00:51:21.171Z,7.70
2019-02-12T00:53:48.748Z,8.40
2019-02-12T00:56:16.010Z,8.60
2019-02-12T00:58:43.233Z,8.97
2019-02-12T01:01:10.371Z,8.80
2019-02-12T01:03:37.970Z,9.10
2019-02-12T01:06:05.312Z,8.70
2019-02-12T01:08:32.535Z,9.53
2019-02-12T01:10:59.779Z,8.97
2019-02-12T01:13:26.992Z,9.83
2019-02-12T01:15:54.231Z,9.10
2019-02-12T01:18:21.696Z,8.80
2019-02-12T01:20:48.941Z,9.33
2019-02-12T01:23:16.164Z,8.40
2019-02-12T01:25:43.413Z,8.43
2019-02-12T01:28:10.623Z,8.20
2019-02-12T01:30:37.896Z,8.10
2019-02-12T01:33:05.216Z,7.83
2019-02-12T01:35:32.463Z,7.67
2019-02-12T01:37:59.679Z,8.20
2019-02-12T01:40:26.916Z,8.30
2019-02-12T01:42:54.247Z,7.80
2019-02-12T01:45:21.568Z,7.20
2019-02-12T01:47:48.800Z,7.43
2019-02-12T01:50:16.032Z,8.90
2019-02-12T01:52:43.164Z,8.53
2019-02-12T01:55:10.485Z,8.80
2019-02-12T01:57:38.012Z,8.00
2019-02-12T02:00:07.069Z,9.07
2019-02-12T02:02:34.290Z,8.30
2019-02-12T02:05:01.589Z,8.67
2019-02-12T02:07:28.809Z,8.40
2019-02-12T02:09:56.031Z,9.20
2019-02-12T02:12:23.265Z,8.60
2019-02-12T02:14:50.559Z,8.40
2019-02-12T02:17:17.879Z,7.70
2019-02-12T02:19:45.188Z,9.00
2019-02-12T02:22:12.432Z,9.10
2019-02-12T02:24:39.656Z,10.10
2019-02-12T02:27:06.912Z,10.47
2019-02-12T02:29:34.131Z,10.17
2019-02-12T02:32:01.375Z,10.07
2019-02-12T02:34:28.603Z,9.33
2019-02-12T02:36:55.863Z,10.43
2019-02-12T02:39:23.172Z,10.97
2019-02-12T02:41:50.424Z,10.20
2019-02-12T02:44:17.641Z,8.87
2019-02-12T02:46:44.900Z,11.00
2019-02-12T02:49:12.129Z,10.47
2019-02-12T02:51:39.474Z,9.53
2019-02-12T02:54:06.693Z,9.43
2019-02-12T02:56:34.204Z,9.60
2019-02-12T02:59:01.417Z,9.60
2019-02-12T03:01:28.660Z,8.63
2019-02-12T03:03:55.890Z,10.53
2019-02-12T03:06:23.521Z,12.70
2019-02-12T03:08:50.748Z,11.10
2019-02-12T03:11:18.011Z,8.87
2019-02-12T03:13:45.247Z,9.20
2019-02-12T03:16:12.553Z,8.40
2019-02-12T03:18:39.786Z,8.70
2019-02-12T03:21:06.939Z,8.70
2019-02-12T03:23:34.163Z,9.33
2019-02-12T03:26:01.396Z,9.53
2019-02-12T03:28:28.640Z,9.63
2019-02-12T03:30:55.960Z,7.67
2019-02-12T03:33:23.224Z,9.10
2019-02-12T03:35:50.540Z,10.60
2019-02-12T03:38:18.094Z,11.33
2019-02-12T03:40:45.672Z,12.77
2019-02-12T03:43:12.919Z,12.33
2019-02-12T03:45:40.150Z,11.07
2019-02-12T03:48:07.711Z,11.10
2019-02-12T03:50:34.928Z,12.43
2019-02-12T03:53:02.183Z,11.23
2019-02-12T03:55:29.403Z,12.97
2019-02-12T03:57:56.723Z,12.43
2019-02-12T04:00:23.941Z,11.97
2019-02-12T04:02:59.609Z,10.07
2019-02-12T04:05:27.388Z,12.10
2019-02-12T04:07:55.043Z,11.73
2019-02-12T04:10:22.261Z,12.03
2019-02-12T04:12:49.589Z,12.17
2019-02-12T04:15:16.815Z,10.57
2019-02-12T04:17:44.046Z,11.20
2019-02-12T04:20:11.284Z,11.77
2019-02-12T04:22:38.499Z,10.73
2019-02-12T04:25:05.752Z,12.13
2019-02-12T04:27:32.963Z,11.33
2019-02-12T04:30:00.310Z,12.10
2019-02-12T04:32:27.823Z,11.63
2019-02-12T04:34:55.219Z,11.67
2019-02-12T04:37:22.455Z,11.10
2019-02-12T04:39:49.682Z,11.33
2019-02-12T04:42:16.909Z,12.77
2019-02-12T04:44:44.127Z,13.47
2019-02-12T04:47:11.355Z,12.83
2019-02-12T04:49:38.709Z,12.57
2019-02-12T04:52:06.292Z,12.90
2019-02-12T04:54:33.521Z,13.57
2019-02-12T04:57:00.750Z,14.97
2019-02-12T04:59:27.961Z,13.23
2019-02-12T05:01:55.260Z,12.27
2019-02-12T05:04:22.547Z,13.17
2019-02-12T05:06:49.766Z,12.83
2019-02-12T05:09:18.888Z,13.53
2019-02-12T05:11:57.577Z,14.00
2019-02-12T05:14:24.835Z,13.50
2019-02-12T05:16:52.096Z,13.77
2019-02-12T05:19:19.437Z,14.80
2019-02-12T05:21:46.796Z,13.60
2019-02-12T05:24:14.092Z,14.00
2019-02-12T05:26:41.313Z,12.97
2019-02-12T05:29:08.812Z,13.77
2019-02-12T05:31:36.048Z,13.77
2019-02-12T05:34:03.287Z,14.20
2019-02-12T05:36:30.510Z,14.73
2019-02-12T05:38:57.736Z,15.53
2019-02-12T05:41:24.953Z,15.60
2019-02-12T05:43:52.274Z,15.27
2019-02-12T05:46:19.488Z,15.90
2019-02-12T05:48:46.742Z,14.87
2019-02-12T05:51:13.956Z,14.13
2019-02-12T05:53:41.207Z,13.23
2019-02-12T05:56:08.433Z,13.40
2019-02-12T05:58:35.773Z,14.73
2019-02-12T06:01:03.385Z,16.03
2019-02-12T06:03:30.737Z,17.30
2019-02-12T06:05:58.316Z,15.50
2019-02-12T06:08:25.663Z,25.83
2019-02-12T06:10:52.990Z,17.43
2019-02-12T06:13:20.245Z,17.93
2019-02-12T06:15:47.812Z,18.20
2019-02-12T06:18:15.061Z,17.47
2019-02-12T06:20:42.286Z,18.63
2019-02-12T06:23:09.520Z,22.87
2019-02-12T06:25:36.751Z,22.10
2019-02-12T06:28:04.305Z,22.53
2019-02-12T06:30:31.586Z,20.57
2019-02-12T06:33:07.184Z,22.03
2019-02-12T06:35:27.937Z,20.73
2019-02-12T06:37:55.166Z,21.70
2019-02-12T06:40:22.679Z,23.00
2019-02-12T06:42:49.913Z,22.63
2019-02-12T06:45:17.141Z,21.80
2019-02-12T06:47:44.366Z,22.80
2019-02-12T06:50:11.893Z,23.03
2019-02-12T06:52:39.107Z,23.47
2019-02-12T06:55:07.327Z,21.70
2019-02-12T06:57:34.595Z,21.63
2019-02-12T07:00:01.833Z,23.97
2019-02-12T07:03:05.601Z,23.67
2019-02-12T07:05:32.873Z,23.70
2019-02-12T07:08:45.378Z,22.27
2019-02-12T07:11:24.272Z,20.03
2019-02-12T07:14:21.872Z,21.50
2019-02-12T07:17:31.015Z,19.70
2019-02-12T07:20:22.729Z,20.30
2019-02-12T07:23:30.489Z,19.03
2019-02-12T07:26:42.529Z,19.47
2019-02-12T07:30:01.349Z,20.70
2019-02-12T07:33:13.299Z,19.97
2019-02-12T07:36:20.081Z,19.10
2019-02-12T07:39:13.600Z,18.97
2019-02-12T07:42:43.783Z,21.57
2019-02-12T07:45:39.955Z,19.93
2019-02-12T07:48:59.721Z,20.60
2019-02-12T07:51:41.979Z,22.50
2019-02-12T07:54:37.573Z,21.97
2019-02-12T07:57:58.570Z,21.57
2019-02-12T08:01:20.076Z,21.10
2019-02-12T08:04:45.363Z,21.93
2019-02-12T08:07:52.401Z,22.80
2019-02-12T08:10:53.539Z,22.47
2019-02-12T08:13:55.986Z,23.47
2019-02-12T08:17:04.089Z,20.67
2019-02-12T08:19:41.204Z,18.27
2019-02-12T08:22:35.333Z,18.80
2019-02-12T08:25:53.767Z,18.53
2019-02-12T08:28:54.499Z,19.50
2019-02-12T08:31:53.890Z,20.10
2019-02-12T08:35:24.149Z,21.37
2019-02-12T08:38:41.176Z,18.47
2019-02-12T08:41:46.383Z,18.13
2019-02-12T08:44:50.492Z,17.43
2019-02-12T08:47:59.692Z,18.90
2019-02-12T08:51:26.971Z,19.20
2019-02-12T08:54:29.560Z,17.77
2019-02-12T08:57:49.359Z,20.43
2019-02-12T09:00:54.636Z,18.50
2019-02-12T09:04:04.259Z,16.97
2019-02-12T09:07:11.021Z,16.97
2019-02-12T09:10:25.016Z,16.43
2019-02-12T09:13:21.981Z,16.10
2019-02-12T09:16:40.144Z,14.87
2019-02-12T09:19:16.831Z,14.07
2019-02-12T09:22:12.269Z,13.47
2019-02-12T09:25:06.319Z,12.57
2019-02-12T09:27:56.845Z,12.73
2019-02-12T09:31:01.872Z,11.53
2019-02-12T09:34:12.748Z,11.93
2019-02-12T09:37:16.616Z,11.03
2019-02-12T09:40:39.961Z,9.70
2019-02-12T09:44:04.469Z,9.30
2019-02-12T09:46:54.991Z,8.93
2019-02-12T09:49:50.045Z,6.97
2019-02-12T09:53:17.455Z,7.00
2019-02-12T09:56:06.160Z,5.97
2019-02-12T09:59:19.682Z,5.17
2019-02-12T10:02:03.695Z,5.57
2019-02-12T10:05:01.694Z,5.97
2019-02-12T10:07:48.495Z,5.07
2019-02-12T10:10:37.667Z,5.70
2019-02-12T10:13:19.329Z,5.40
2019-02-12T10:16:13.367Z,4.77
2019-02-12T10:19:37.819Z,5.57
2019-02-12T10:22:35.446Z,5.00
2019-02-12T10:25:15.319Z,6.23
2019-02-12T10:28:48.566Z,6.20
2019-02-12T10:31:41.064Z,6.00
2019-02-12T10:34:08.452Z,5.57
2019-02-12T10:36:35.669Z,5.77
2019-02-12T10:39:04.579Z,6.07
2019-02-12T10:41:31.795Z,6.53
2019-02-12T10:43:59.316Z,5.33
2019-02-12T10:46:26.594Z,5.57
2019-02-12T10:48:53.934Z,5.30
2019-02-12T10:51:21.148Z,5.50
2019-02-12T10:53:48.400Z,4.73
2019-02-12T10:56:15.619Z,4.93
2019-02-12T10:58:42.855Z,5.97
2019-02-12T11:01:10.226Z,5.90
2019-02-12T11:03:37.528Z,4.83
2019-02-12T11:06:04.756Z,5.30
2019-02-12T11:08:31.968Z,4.80
2019-02-12T11:10:59.216Z,4.73
2019-02-12T11:13:26.434Z,4.07
2019-02-12T11:15:53.663Z,3.43
2019-02-12T11:18:20.896Z,3.00
2019-02-12T11:20:48.117Z,2.60
2019-02-12T11:23:15.636Z,3.30
2019-02-12T11:25:43.203Z,3.40
2019-02-12T11:28:10.440Z,2.50
2019-02-12T11:30:37.738Z,2.30
2019-02-12T11:33:04.967Z,3.17
2019-02-12T11:35:32.215Z,2.10
2019-02-12T11:37:59.431Z,2.50
2019-02-12T11:40:27.036Z,2.33
2019-02-12T11:42:54.348Z,1.87
2019-02-12T11:45:21.709Z,2.67
2019-02-12T11:47:48.988Z,2.20
2019-02-12T11:50:16.240Z,2.57
2019-02-12T11:52:43.792Z,2.47
2019-02-12T11:55:11.052Z,2.40
2019-02-12T11:57:38.264Z,2.70
2019-02-12T12:00:08.510Z,2.07
2019-02-12T12:02:41.791Z,2.33
2019-02-12T12:05:05.604Z,2.17
2019-02-12T12:07:32.913Z,2.33
2019-02-12T12:10:00.243Z,2.20
2019-02-12T12:12:27.539Z,2.13
2019-02-12T12:14:54.793Z,2.93
2019-02-12T12:17:22.020Z,2.10
2019-02-12T12:19:49.604Z,2.03
2019-02-12T12:22:16.835Z,1.90
2019-02-12T12:24:51.308Z,1.90
2019-02-12T12:27:13.268Z,2.37
2019-02-12T12:29:40.644Z,2.20
2019-02-12T12:32:07.880Z,2.03
2019-02-12T12:34:35.371Z,2.23
2019-02-12T12:37:02.945Z,1.73
2019-02-12T12:39:30.276Z,1.63
2019-02-12T12:41:57.883Z,1.70
2019-02-12T12:44:25.189Z,2.07
2019-02-12T12:46:52.488Z,1.67
2019-02-12T12:49:19.708Z,1.97
2019-02-12T12:51:46.942Z,1.70
2019-02-12T12:54:14.251Z,2.10
2019-02-12T12:56:41.476Z,2.37
2019-02-12T12:59:08.696Z,2.10
2019-02-12T13:01:35.919Z,2.07
2019-02-12T13:04:03.132Z,2.73
2019-02-12T13:06:30.376Z,2.47
2019-02-12T13:08:57.636Z,2.33
2019-02-12T13:11:26.669Z,2.40
2019-02-12T13:13:54.099Z,2.30
2019-02-12T13:16:21.316Z,2.00
2019-02-12T13:18:48.531Z,2.67
2019-02-12T13:21:16.123Z,2.87
2019-02-12T13:23:43.340Z,2.17
2019-02-12T13:26:10.587Z,2.50
2019-02-12T13:28:37.805Z,2.23
2019-02-12T13:31:05.048Z,2.43
2019-02-12T13:33:32.276Z,2.53
2019-02-12T13:35:59.525Z,2.33
2019-02-12T13:38:26.749Z,2.23
2019-02-12T13:40:54.017Z,2.53
2019-02-12T13:43:21.244Z,2.13
2019-02-12T13:45:48.483Z,2.03
2019-02-12T13:48:15.700Z,3.80
2019-02-12T13:50:43.249Z,2.93
2019-02-12T13:53:10.468Z,2.30
2019-02-12T13:55:37.989Z,2.30
2019-02-12T13:58:05.217Z,2.47
2019-02-12T14:00:32.427Z,2.40
2019-02-12T14:02:59.651Z,2.50
2019-02-12T14:05:26.896Z,2.73
2019-02-12T14:07:54.194Z,2.70
2019-02-12T14:10:21.399Z,2.47
2019-02-12T14:12:48.940Z,2.27
2019-02-12T14:15:16.159Z,2.50
2019-02-12T14:17:43.379Z,2.20
2019-02-12T14:20:11.780Z,2.20
2019-02-12T14:22:39.385Z,2.23
2019-02-12T14:25:07.088Z,2.20
2019-02-12T14:27:34.329Z,2.67
2019-02-12T14:30:01.653Z,2.90
2019-02-12T14:32:29.292Z,2.20
2019-02-12T14:34:56.530Z,2.40
2019-02-12T14:37:23.763Z,2.47
2019-02-12T14:39:50.992Z,2.20
2019-02-12T14:42:18.616Z,1.97
2019-02-12T14:44:45.935Z,2.37
2019-02-12T14:47:13.416Z,1.93
2019-02-12T14:49:40.645Z,1.97
2019-02-12T14:52:08.324Z,2.30
2019-02-12T14:54:35.561Z,2.07
2019-02-12T14:57:02.950Z,2.00
2019-02-12T14:59:30.185Z,2.13
2019-02-12T15:01:57.768Z,2.10
2019-02-12T15:04:25.304Z,1.80
2019-02-12T15:06:52.565Z,2.37
2019-02-12T15:09:19.815Z,2.37
2019-02-12T15:11:47.072Z,2.70
2019-02-12T15:14:14.316Z,3.00
2019-02-12T15:16:41.571Z,3.03
2019-02-12T15:19:08.811Z,2.40
2019-02-12T15:21:36.073Z,2.73
2019-02-12T15:24:03.308Z,3.37
2019-02-12T15:26:30.538Z,3.07
2019-02-12T15:28:58.136Z,3.53
2019-02-12T15:31:25.405Z,3.23
2019-02-12T15:33:52.750Z,2.97
2019-02-12T15:36:20.300Z,2.83
2019-02-12T15:38:47.552Z,3.23
2019-02-12T15:41:14.875Z,2.70
2019-02-12T15:43:42.113Z,2.60
2019-02-12T15:46:09.352Z,3.00
2019-02-12T15:48:36.587Z,3.37
2019-02-12T15:51:03.819Z,3.23
2019-02-12T15:53:31.383Z,3.20
2019-02-12T15:55:58.624Z,3.60
2019-02-12T15:58:26.418Z,3.70
2019-02-12T16:00:54.992Z,3.17
2019-02-12T16:03:22.224Z,4.03
2019-02-12T16:05:49.455Z,4.00
2019-02-12T16:08:17.031Z,3.60
2019-02-12T16:10:44.584Z,3.40
2019-02-12T16:13:13.563Z,3.13
2019-02-12T16:15:42.982Z,3.17
2019-02-12T16:18:10.125Z,7.87
2019-02-12T16:20:37.436Z,4.23
2019-02-12T16:23:04.944Z,3.10
2019-02-12T16:25:32.182Z,2.60
2019-02-12T16:27:59.425Z,3.20
2019-02-12T16:30:26.658Z,2.60
2019-02-12T16:32:53.891Z,3.70
2019-02-12T16:35:21.126Z,3.13
2019-02-12T16:37:48.380Z,3.23
2019-02-12T16:40:15.621Z,3.00
2019-02-12T16:42:42.970Z,4.00
2019-02-12T16:45:19.683Z,4.07
2019-02-12T16:47:46.956Z,4.57
2019-02-12T16:50:14.196Z,4.27
2019-02-12T16:52:41.425Z,6.20
2019-02-12T16:55:09.479Z,5.70
2019-02-12T16:57:38.033Z,5.90
2019-02-12T17:00:08.830Z,5.40
2019-02-12T17:02:36.062Z,6.10
2019-02-12T17:05:03.747Z,6.03
2019-02-12T17:07:31.042Z,6.73
2019-02-12T17:09:58.445Z,6.53
2019-02-12T17:12:25.676Z,6.80
2019-02-12T17:14:52.921Z,6.23
2019-02-12T17:17:20.443Z,6.87
2019-02-12T17:19:47.680Z,6.47
2019-02-12T17:22:14.920Z,7.03
2019-02-12T17:24:42.167Z,6.27
2019-02-12T17:27:09.407Z,6.63
2019-02-12T17:29:36.646Z,6.93
2019-02-12T17:32:03.877Z,6.70
2019-02-12T17:34:31.428Z,6.03
2019-02-12T17:36:58.666Z,5.77
2019-02-12T17:39:26.262Z,5.67
2019-02-12T17:41:53.686Z,5.30
2019-02-12T17:44:20.924Z,5.67
2019-02-12T17:46:48.168Z,5.73
2019-02-12T17:49:15.413Z,6.10
2019-02-12T17:51:43.004Z,5.73
2019-02-12T17:54:10.912Z,6.27
2019-02-12T17:56:38.144Z,6.40
2019-02-12T17:59:05.359Z,6.13
2019-02-12T18:01:32.596Z,6.40
2019-02-12T18:03:59.824Z,6.80
2019-02-12T18:06:27.045Z,6.80
2019-02-12T18:08:55.201Z,7.80
2019-02-12T18:11:22.436Z,8.80
2019-02-12T18:13:50.859Z,9.47
2019-02-12T18:16:18.091Z,10.13
2019-02-12T18:18:45.328Z,10.00
2019-02-12T18:21:12.559Z,9.90
2019-02-12T18:23:40.167Z,9.50
2019-02-12T18:26:07.395Z,9.27
2019-02-12T18:28:34.720Z,20.10
2019-02-12T18:31:01.956Z,11.77
2019-02-12T18:33:29.187Z,10.17
2019-02-12T18:35:56.415Z,11.43
2019-02-12T18:38:23.636Z,13.80
2019-02-12T18:40:50.861Z,15.43
2019-02-12T18:43:18.088Z,15.80
2019-02-12T18:45:45.307Z,15.47
2019-02-12T18:48:12.864Z,16.37
2019-02-12T18:50:40.116Z,16.20
2019-02-12T18:53:07.427Z,16.63
2019-02-12T18:55:34.776Z,16.17
2019-02-12T18:58:02.204Z,15.10
2019-02-12T19:00:29.876Z,13.83
2019-02-12T19:02:57.091Z,15.07
2019-02-12T19:05:24.336Z,14.83
2019-02-12T19:07:51.903Z,14.47
2019-02-12T19:10:19.574Z,14.33
2019-02-12T19:12:46.779Z,16.67
2019-02-12T19:15:14.575Z,16.97
2019-02-12T19:17:43.808Z,17.77
2019-02-12T19:20:11.953Z,16.30
2019-02-12T19:22:39.067Z,15.90
2019-02-12T19:25:07.420Z,14.93
2019-02-12T19:27:34.655Z,13.30
2019-02-12T19:30:02.039Z,12.47
2019-02-12T19:32:29.540Z,12.23
2019-02-12T19:34:57.210Z,14.23
2019-02-12T19:37:24.781Z,13.37
2019-02-12T19:39:52.021Z,14.93
2019-02-12T19:42:19.336Z,14.63
2019-02-12T19:44:47.184Z,15.70
2019-02-12T19:47:14.408Z,14.57
2019-02-12T19:49:41.784Z,15.57
2019-02-12T19:52:09.024Z,15.83
2019-02-12T19:54:36.267Z,17.13
2019-02-12T19:57:03.485Z,18.93
2019-02-12T19:59:30.736Z,18.10
2019-02-12T20:01:57.960Z,16.53
2019-02-12T20:04:25.180Z,13.70
2019-02-12T20:06:52.413Z,13.53
2019-02-12T20:09:21.557Z,14.63
2019-02-12T20:11:48.872Z,14.50
2019-02-12T20:14:16.099Z,14.60
2019-02-12T20:16:43.351Z,12.87
2019-02-12T20:19:10.590Z,14.27
2019-02-12T20:21:37.843Z,14.37
2019-02-12T20:24:05.072Z,14.30
2019-02-12T20:26:32.534Z,14.20
2019-02-12T20:29:00.168Z,12.90
2019-02-12T20:31:27.679Z,12.17
2019-02-12T20:33:57.085Z,12.80
2019-02-12T20:36:24.468Z,12.60
2019-02-12T20:38:52.002Z,11.83
2019-02-12T20:41:19.242Z,12.60
2019-02-12T20:43:46.477Z,11.70
2019-02-12T20:46:13.819Z,11.23
2019-02-12T20:48:41.143Z,11.87
2019-02-12T20:51:08.387Z,13.23
2019-02-12T20:53:35.916Z,12.00
2019-02-12T20:56:03.475Z,12.27
2019-02-12T20:58:30.700Z,13.30
2019-02-12T21:00:57.953Z,12.43
2019-02-12T21:03:25.173Z,12.40
2019-02-12T21:05:52.420Z,13.80
2019-02-12T21:08:20.053Z,12.83
2019-02-12T21:10:47.470Z,14.80
2019-02-12T21:13:14.957Z,13.03
2019-02-12T21:15:42.265Z,12.90
2019-02-12T21:18:09.567Z,13.17
2019-02-12T21:20:36.704Z,13.43
2019-02-12T21:23:04.288Z,13.93
2019-02-12T21:25:31.512Z,13.03
2019-02-12T21:27:58.752Z,13.80
2019-02-12T21:30:25.993Z,13.37
2019-02-12T21:32:53.225Z,14.67
2019-02-12T21:35:20.439Z,14.87
2019-02-12T21:37:47.663Z,15.00
2019-02-12T21:40:17.239Z,14.33
2019-02-12T21:42:44.524Z,14.87
2019-02-12T21:45:12.782Z,15.67
2019-02-12T21:47:40.471Z,16.67
2019-02-12T21:50:07.711Z,17.47
2019-02-12T21:52:34.960Z,18.07
2019-02-12T21:55:02.183Z,17.50
2019-02-12T21:57:31.672Z,18.03
2019-02-12T21:59:58.597Z,18.20
2019-02-12T22:02:25.843Z,19.73
2019-02-12T22:04:53.059Z,19.23
2019-02-12T22:07:20.311Z,18.10
2019-02-12T22:09:47.551Z,15.83
2019-02-12T22:12:14.801Z,15.53
2019-02-12T22:14:42.399Z,15.13
2019-02-12T22:17:09.661Z,15.10
2019-02-12T22:19:37.223Z,14.27
2019-02-12T22:22:04.484Z,14.80
2019-02-12T22:24:31.720Z,13.87
2019-02-12T22:26:58.970Z,13.10
2019-02-12T22:29:26.239Z,14.40
2019-02-12T22:31:53.480Z,14.47
2019-02-12T22:34:20.697Z,14.47
2019-02-12T22:36:47.935Z,15.63
2019-02-12T22:39:15.161Z,15.27
2019-02-12T22:41:42.407Z,15.27
2019-02-12T22:44:09.629Z,14.97
2019-02-12T22:46:36.892Z,15.40
2019-02-12T22:49:04.349Z,13.97
2019-02-12T22:51:31.595Z,14.40
2019-02-12T22:53:59.252Z,14.03
2019-02-12T22:56:26.479Z,14.57
2019-02-12T22:58:53.713Z,14.73
2019-02-12T23:01:31.416Z,15.43
2019-02-12T23:03:58.637Z,15.80
2019-02-12T23:06:25.861Z,16.17
2019-02-12T23:08:53.075Z,16.90
2019-02-12T23:11:20.291Z,15.37
2019-02-12T23:13:47.511Z,16.40
2019-02-12T23:16:15.074Z,16.00
2019-02-12T23:18:42.375Z,17.20
2019-02-12T23:21:09.654Z,20.80
2019-02-12T23:23:36.879Z,20.53
2019-02-12T23:26:04.095Z,17.27
2019-02-12T23:28:31.315Z,18.00
2019-02-12T23:30:58.456Z,17.80
2019-02-12T23:33:25.671Z,16.83
2019-02-12T23:35:52.900Z,17.90
2019-02-12T23:38:20.231Z,16.43
2019-02-12T23:40:47.843Z,18.93
2019-02-12T23:43:15.461Z,18.50
2019-02-12T23:45:42.673Z,17.47
2019-02-12T23:48:09.920Z,18.47
2019-02-12T23:50:37.158Z,18.87
2019-02-12T23:53:04.399Z,18.33
2019-02-12T23:55:31.625Z,18.63
2019-02-12T23:58:05.747Z,17.43
